Aladdin, WY

3:46 AM MDT on September 30, 2014 (GMT -0600)
Hulett | Change Station
CLOSE
Current Station
Airport
Location: Hulett,
Elevation: 1300 m
Nearby Weather Stations
Active Advisory: Areal Flood Watch Active Notice: Record Report

Elev 1300 m 44.66 °N, 104.57 °W | Updated 11 minutes ago

Rain
Rain
10 °C
Feels Like 10 °C
N
7
Wind Variable Wind from WNW

Today
High -- | Low -- °C
--% Chance of Precip.
Yesterday
High -- | Low -- °C
Precip. -- mm
6:53 AM 6:39 PM
Waxing Crescent, 35% visible
Pressure 1006 hPa
Visibility 0.4 kilometers
Clouds Overcast 30 m
Dew Point 9 °C
Humidity 94%
Rainfall 0.0 mm
Snow Depth 1 in , 0 in , 0 in
UV 0 out of 12
Pollen .50 out of 12
Air Quality Not available.
Flu Activity Not available.
METAR KW43 300935Z AUTO 29004KT 1/4SM RA OVC001 10/09 A2971 RMK AO2

More Conditions Fewer Conditions

Pressure 1006 hPa
Visibility 0.4 kilometers
Clouds Overcast 30 m
Dew Point 9 °C
Humidity 94%
Rainfall 0.0 mm
Snow Depth 1 in , 0 in , 0 in
UV 0 out of 12
Pollen .50 out of 12
Air Quality Not available.
Flu Activity Not available.
METAR KW43 300935Z AUTO 29004KT 1/4SM RA OVC001 10/09 A2971 RMK AO2

More Conditions Fewer Conditions

10-Day Weather Forecast

Almanac

Astronomy

Sep. 30, 2014 Rise Set
Actual Time 6:53 AM MDT 6:39 PM MDT
Civil Twilight 6:24 AM MDT 7:08 PM MDT
Nautical Twilight 5:50 AM MDT 7:42 PM MDT
Astronomical Twilight 5:15 AM MDT 8:16 PM MDT
Moon 1:15 PM MDT 11:00 PM MDT
Length of Visible Light 12h 43m
Length of Day
11h 45m
Tomorrow will be 3m 5s shorter.
Waxing Crescent, 35% of the Moon is Illuminated
Today
Waxing Crescent
Oct 1
First Quarter
Oct 8
Full
Oct 15
Last Quarter
Oct 23
New

Today's Extremes

State Highs State Lows

Community

WunderPhotos

Upload Photos

1,757,606 photos uploaded!

Nearby

Snow Depth

Station Depth Elevation
Brooklyn Lake 1 in 10220 ft
New Fork Lake 0 in 8340 ft
Cold Springs 0 in 9630 ft
Base Camp 0 in 7030 ft
Whiskey Park 0 in 8950 ft

Earthquake Activity

City Distance Mag. Time & Date
No recent earthquake activity has been reported nearby.
Minimum magnitude displayed is 2.5.

Coastal Water Temperatures

Place Temperature
No Stations Reporting

Nearby Weather Stations